This is the latest recevied weather packets stored in our database for station/object F4AMY-13. If no packets are shown the sender has not sent any weather packets the latest 10 day(s).
| Time | Temp. | Humidity | Pressure | Rain* | Wind** | Luminosity | Snow |
|---|---|---|---|---|---|---|---|
| 1777733559 | 22.78° C | 36% | 1019.8 hPa | 0 mm | 109.52 m/s, ° | 245 W/m² | - |
| 1777733259 | 22.78° C | 40% | 1019.8 hPa | 0 mm | 78.68 m/s, ° | 176 W/m² | - |
| 1777732959 | 23.33° C | 36% | 1019.8 hPa | 0 mm | 101.48 m/s, ° | 227 W/m² | - |
| 1777732659 | 23.33° C | 35% | 1019.8 hPa | 0 mm | 71.08 m/s, ° | 159 W/m² | - |
| 1777732359 | 23.89° C | 33% | 1019.9 hPa | 0 mm | 93.88 m/s, ° | 210 W/m² | - |
| 1777732059 | 23.89° C | 35% | 1020.2 hPa | 0 mm | 97.45 m/s, ° | 218 W/m² | - |
| 1777731759 | 24.44° C | 35% | 1020.2 hPa | 0 mm | 140.82 m/s, ° | 315 W/m² | - |
| 1777731459 | 24.44° C | 37% | 1020.4 hPa | 0 mm | 153.33 m/s, ° | 343 W/m² | - |
| 1777731159 | 24.44° C | 35% | 1020.5 hPa | 0 mm | 142.16 m/s, ° | 318 W/m² | - |
| 1777730859 | 24.44° C | 34% | 1020.5 hPa | 0 mm | 164.96 m/s, ° | 369 W/m² | - |
| 1777730559 | 24.44° C | 34% | 1020.6 hPa | 0 mm | 177.03 m/s, ° | 396 W/m² | - |
| 1777730259 | 23.89° C | 35% | 1020.7 hPa | 0 mm | 179.26 m/s, ° | 401 W/m² | - |
| 1777729959 | 23.89° C | 35% | 1020.7 hPa | 0 mm | 179.26 m/s, ° | 401 W/m² | - |
| 1777729659 | 23.89° C | 39% | 1020.8 hPa | 0 mm | 187.76 m/s, ° | 420 W/m² | - |
| 1777729359 | 23.89° C | 36% | 1020.7 hPa | 0 mm | 191.78 m/s, ° | 429 W/m² | - |
| 1777729059 | 24.44° C | 37% | 1020.8 hPa | 0 mm | 189.99 m/s, ° | 425 W/m² | - |
| 1777728759 | 23.89° C | 42% | 1020.5 hPa | 0 mm | 187.76 m/s, ° | 420 W/m² | - |
| 1777728459 | 23.89° C | 40% | 1020.6 hPa | 0 mm | 194.46 m/s, ° | 435 W/m² | - |
| 1777728158 | 24.44° C | 36% | 1020.9 hPa | 0 mm | 194.46 m/s, ° | 435 W/m² | - |
| 1777727858 | 24.44° C | 38% | 1020.9 hPa | 0 mm | 192.67 m/s, ° | 431 W/m² | - |
| 1777727558 | 24.44° C | 36% | 1021.1 hPa | 0 mm | 190.89 m/s, ° | 427 W/m² | - |
| 1777727258 | 25° C | 40% | 1020.9 hPa | 0 mm | 191.78 m/s, ° | 429 W/m² | - |
| 1777726958 | 25° C | 37% | 1020.8 hPa | 0 mm | 200.72 m/s, ° | 449 W/m² | - |
| 1777726658 | 25° C | 37% | 1020.8 hPa | 0 mm | 198.49 m/s, ° | 444 W/m² | - |
| 1777726358 | 25.56° C | 34% | 1021 hPa | 0 mm | 196.7 m/s, ° | 440 W/m² | - |
* Rain latest hour (hover to see other rain measurements)
** Current wind speed in m/s (hover to see current wind gust speed)